sensor_id;sensor_type;location;lat;lon;timestamp;P1;durP1;ratioP1;P2;durP2;ratioP2
19101;SDS011;9683;49.028;12.064;2023-12-14T00:01:27;215.50;;;13.83;;
19101;SDS011;9683;49.028;12.064;2023-12-14T00:03:54;245.00;;;16.17;;
19101;SDS011;9683;49.028;12.064;2023-12-14T00:09:44;95.47;;;7.00;;
19101;SDS011;9683;49.028;12.064;2023-12-14T00:12:10;233.63;;;15.20;;
19101;SDS011;9683;49.028;12.064;2023-12-14T00:14:37;218.57;;;14.77;;
19101;SDS011;9683;49.028;12.064;2023-12-14T00:17:04;256.67;;;20.93;;
19101;SDS011;9683;49.028;12.064;2023-12-14T00:19:30;347.50;;;44.13;;
19101;SDS011;9683;49.028;12.064;2023-12-14T00:21:57;267.73;;;29.70;;
19101;SDS011;9683;49.028;12.064;2023-12-14T00:24:23;233.30;;;16.60;;
19101;SDS011;9683;49.028;12.064;2023-12-14T00:26:51;216.17;;;14.60;;
19101;SDS011;9683;49.028;12.064;2023-12-14T00:29:18;225.07;;;14.10;;
19101;SDS011;9683;49.028;12.064;2023-12-14T00:31:44;235.90;;;14.63;;
19101;SDS011;9683;49.028;12.064;2023-12-14T00:34:11;206.20;;;13.17;;
19101;SDS011;9683;49.028;12.064;2023-12-14T00:36:37;181.83;;;12.50;;
19101;SDS011;9683;49.028;12.064;2023-12-14T00:39:04;86.77;;;6.27;;
19101;SDS011;9683;49.028;12.064;2023-12-14T00:41:31;235.07;;;13.87;;
19101;SDS011;9683;49.028;12.064;2023-12-14T00:43:59;263.83;;;17.87;;
19101;SDS011;9683;49.028;12.064;2023-12-14T00:46:25;251.43;;;16.13;;
19101;SDS011;9683;49.028;12.064;2023-12-14T00:48:52;240.67;;;15.87;;
19101;SDS011;9683;49.028;12.064;2023-12-14T00:51:18;253.93;;;16.20;;
19101;SDS011;9683;49.028;12.064;2023-12-14T00:53:45;255.40;;;15.67;;
19101;SDS011;9683;49.028;12.064;2023-12-14T00:56:11;252.13;;;15.70;;
19101;SDS011;9683;49.028;12.064;2023-12-14T00:58:38;261.83;;;16.60;;
19101;SDS011;9683;49.028;12.064;2023-12-14T01:01:06;266.00;;;15.97;;
19101;SDS011;9683;49.028;12.064;2023-12-14T01:03:32;261.37;;;15.50;;
19101;SDS011;9683;49.028;12.064;2023-12-14T01:05:59;258.17;;;16.67;;
19101;SDS011;9683;49.028;12.064;2023-12-14T01:08:25;314.67;;;18.37;;
19101;SDS011;9683;49.028;12.064;2023-12-14T01:10:52;256.30;;;16.13;;
19101;SDS011;9683;49.028;12.064;2023-12-14T01:13:19;252.87;;;15.57;;
19101;SDS011;9683;49.028;12.064;2023-12-14T01:15:45;271.10;;;16.33;;
19101;SDS011;9683;49.028;12.064;2023-12-14T01:18:13;203.43;;;13.00;;
19101;SDS011;9683;49.028;12.064;2023-12-14T01:20:40;183.37;;;11.33;;
19101;SDS011;9683;49.028;12.064;2023-12-14T01:23:06;255.03;;;14.70;;
19101;SDS011;9683;49.028;12.064;2023-12-14T01:25:34;263.60;;;15.37;;
19101;SDS011;9683;49.028;12.064;2023-12-14T01:28:01;268.27;;;15.70;;
19101;SDS011;9683;49.028;12.064;2023-12-14T01:30:27;263.03;;;15.93;;
19101;SDS011;9683;49.028;12.064;2023-12-14T01:32:54;244.73;;;14.57;;
19101;SDS011;9683;49.028;12.064;2023-12-14T01:35:22;251.97;;;16.03;;
19101;SDS011;9683;49.028;12.064;2023-12-14T01:37:49;240.40;;;14.47;;
19101;SDS011;9683;49.028;12.064;2023-12-14T01:40:16;275.87;;;16.13;;
19101;SDS011;9683;49.028;12.064;2023-12-14T01:42:45;269.00;;;15.57;;
19101;SDS011;9683;49.028;12.064;2023-12-14T01:45:11;293.50;;;16.23;;
19101;SDS011;9683;49.028;12.064;2023-12-14T01:47:40;274.77;;;15.87;;
19101;SDS011;9683;49.028;12.064;2023-12-14T01:50:07;232.85;;;14.18;;
19101;SDS011;9683;49.028;12.064;2023-12-14T01:52:35;238.30;;;13.80;;
19101;SDS011;9683;49.028;12.064;2023-12-14T01:55:02;218.77;;;12.90;;
19101;SDS011;9683;49.028;12.064;2023-12-14T01:57:29;267.87;;;15.27;;
19101;SDS011;9683;49.028;12.064;2023-12-14T01:59:56;319.13;;;19.63;;
19101;SDS011;9683;49.028;12.064;2023-12-14T02:02:22;264.27;;;15.13;;
19101;SDS011;9683;49.028;12.064;2023-12-14T02:04:49;165.63;;;9.98;;
19101;SDS011;9683;49.028;12.064;2023-12-14T02:07:15;99.23;;;6.87;;
19101;SDS011;9683;49.028;12.064;2023-12-14T02:09:43;177.07;;;11.00;;
19101;SDS011;9683;49.028;12.064;2023-12-14T02:12:10;238.70;;;13.80;;
19101;SDS011;9683;49.028;12.064;2023-12-14T02:14:36;172.87;;;10.70;;
19101;SDS011;9683;49.028;12.064;2023-12-14T02:17:03;132.97;;;9.07;;
19101;SDS011;9683;49.028;12.064;2023-12-14T02:19:30;138.57;;;8.83;;
19101;SDS011;9683;49.028;12.064;2023-12-14T02:21:57;150.90;;;9.70;;
19101;SDS011;9683;49.028;12.064;2023-12-14T02:24:24;136.32;;;10.45;;
19101;SDS011;9683;49.028;12.064;2023-12-14T02:26:51;135.47;;;8.53;;
19101;SDS011;9683;49.028;12.064;2023-12-14T02:29:17;198.20;;;11.80;;
19101;SDS011;9683;49.028;12.064;2023-12-14T02:31:44;171.32;;;10.80;;
19101;SDS011;9683;49.028;12.064;2023-12-14T02:34:13;229.98;;;13.55;;
19101;SDS011;9683;49.028;12.064;2023-12-14T02:36:39;201.07;;;11.90;;
19101;SDS011;9683;49.028;12.064;2023-12-14T02:39:06;207.83;;;12.33;;
19101;SDS011;9683;49.028;12.064;2023-12-14T02:41:34;93.20;;;6.45;;
19101;SDS011;9683;49.028;12.064;2023-12-14T02:44:00;159.90;;;10.52;;
19101;SDS011;9683;49.028;12.064;2023-12-14T02:46:27;152.73;;;9.17;;
19101;SDS011;9683;49.028;12.064;2023-12-14T02:48:53;168.70;;;10.20;;
19101;SDS011;9683;49.028;12.064;2023-12-14T02:51:20;144.73;;;9.17;;
19101;SDS011;9683;49.028;12.064;2023-12-14T02:53:46;242.20;;;14.25;;
19101;SDS011;9683;49.028;12.064;2023-12-14T02:56:13;235.70;;;14.17;;
19101;SDS011;9683;49.028;12.064;2023-12-14T02:58:41;229.33;;;13.50;;
19101;SDS011;9683;49.028;12.064;2023-12-14T03:01:07;235.60;;;13.93;;
19101;SDS011;9683;49.028;12.064;2023-12-14T03:03:34;234.27;;;14.07;;
19101;SDS011;9683;49.028;12.064;2023-12-14T03:06:04;232.83;;;13.97;;
19101;SDS011;9683;49.028;12.064;2023-12-14T03:08:30;258.33;;;15.20;;
19101;SDS011;9683;49.028;12.064;2023-12-14T03:10:57;246.50;;;14.60;;
19101;SDS011;9683;49.028;12.064;2023-12-14T03:13:25;180.13;;;11.02;;
19101;SDS011;9683;49.028;12.064;2023-12-14T03:15:54;190.07;;;11.23;;
19101;SDS011;9683;49.028;12.064;2023-12-14T03:18:21;239.17;;;14.07;;
19101;SDS011;9683;49.028;12.064;2023-12-14T03:20:47;245.53;;;14.60;;
19101;SDS011;9683;49.028;12.064;2023-12-14T03:23:14;226.70;;;14.25;;
19101;SDS011;9683;49.028;12.064;2023-12-14T03:25:41;233.57;;;14.83;;
19101;SDS011;9683;49.028;12.064;2023-12-14T03:28:07;151.00;;;9.60;;
19101;SDS011;9683;49.028;12.064;2023-12-14T03:30:34;259.53;;;15.90;;
19101;SDS011;9683;49.028;12.064;2023-12-14T03:33:02;167.47;;;10.60;;
19101;SDS011;9683;49.028;12.064;2023-12-14T03:35:32;96.90;;;6.80;;
19101;SDS011;9683;49.028;12.064;2023-12-14T03:37:58;99.67;;;8.60;;
19101;SDS011;9683;49.028;12.064;2023-12-14T03:40:25;205.57;;;12.80;;
19101;SDS011;9683;49.028;12.064;2023-12-14T03:42:51;225.10;;;13.37;;
19101;SDS011;9683;49.028;12.064;2023-12-14T03:45:18;241.80;;;14.68;;
19101;SDS011;9683;49.028;12.064;2023-12-14T03:47:44;230.03;;;14.27;;
19101;SDS011;9683;49.028;12.064;2023-12-14T03:50:12;221.90;;;13.95;;
19101;SDS011;9683;49.028;12.064;2023-12-14T03:52:39;246.80;;;15.45;;
19101;SDS011;9683;49.028;12.064;2023-12-14T03:55:06;210.13;;;12.88;;
19101;SDS011;9683;49.028;12.064;2023-12-14T03:57:34;240.32;;;14.68;;
19101;SDS011;9683;49.028;12.064;2023-12-14T04:00:00;240.93;;;43.80;;
19101;SDS011;9683;49.028;12.064;2023-12-14T04:02:27;237.02;;;42.38;;
19101;SDS011;9683;49.028;12.064;2023-12-14T04:04:54;217.77;;;40.67;;
19101;SDS011;9683;49.028;12.064;2023-12-14T04:07:22;201.93;;;40.50;;
19101;SDS011;9683;49.028;12.064;2023-12-14T04:09:48;244.63;;;41.20;;
19101;SDS011;9683;49.028;12.064;2023-12-14T04:12:15;223.40;;;39.60;;
19101;SDS011;9683;49.028;12.064;2023-12-14T04:14:41;279.33;;;47.50;;
19101;SDS011;9683;49.028;12.064;2023-12-14T04:17:08;220.13;;;39.73;;
19101;SDS011;9683;49.028;12.064;2023-12-14T04:19:34;194.67;;;38.97;;
19101;SDS011;9683;49.028;12.064;2023-12-14T04:22:01;266.27;;;46.47;;
19101;SDS011;9683;49.028;12.064;2023-12-14T04:24:29;278.77;;;44.00;;
19101;SDS011;9683;49.028;12.064;2023-12-14T04:26:56;283.23;;;45.10;;
19101;SDS011;9683;49.028;12.064;2023-12-14T04:29:22;262.35;;;42.20;;
19101;SDS011;9683;49.028;12.064;2023-12-14T04:31:49;270.03;;;42.53;;
19101;SDS011;9683;49.028;12.064;2023-12-14T04:34:16;263.73;;;40.95;;
19101;SDS011;9683;49.028;12.064;2023-12-14T04:36:44;129.03;;;31.90;;
19101;SDS011;9683;49.028;12.064;2023-12-14T04:39:11;143.47;;;33.40;;
19101;SDS011;9683;49.028;12.064;2023-12-14T04:41:39;125.03;;;32.33;;
19101;SDS011;9683;49.028;12.064;2023-12-14T04:44:06;178.53;;;35.97;;
19101;SDS011;9683;49.028;12.064;2023-12-14T04:46:35;156.93;;;33.80;;
19101;SDS011;9683;49.028;12.064;2023-12-14T04:49:02;172.17;;;33.20;;
19101;SDS011;9683;49.028;12.064;2023-12-14T04:51:29;139.87;;;29.73;;
19101;SDS011;9683;49.028;12.064;2023-12-14T04:53:57;144.47;;;36.97;;
19101;SDS011;9683;49.028;12.064;2023-12-14T04:56:23;205.50;;;35.63;;
19101;SDS011;9683;49.028;12.064;2023-12-14T04:58:51;279.70;;;40.73;;
19101;SDS011;9683;49.028;12.064;2023-12-14T05:01:18;244.43;;;36.83;;
19101;SDS011;9683;49.028;12.064;2023-12-14T05:03:44;168.68;;;33.85;;
19101;SDS011;9683;49.028;12.064;2023-12-14T05:06:11;129.63;;;27.97;;
19101;SDS011;9683;49.028;12.064;2023-12-14T05:08:38;218.40;;;37.23;;
19101;SDS011;9683;49.028;12.064;2023-12-14T05:11:04;256.92;;;41.92;;
19101;SDS011;9683;49.028;12.064;2023-12-14T05:13:31;268.40;;;38.17;;
19101;SDS011;9683;49.028;12.064;2023-12-14T05:15:59;244.70;;;40.37;;
19101;SDS011;9683;49.028;12.064;2023-12-14T05:18:26;244.10;;;36.50;;
19101;SDS011;9683;49.028;12.064;2023-12-14T05:20:55;257.27;;;38.27;;
19101;SDS011;9683;49.028;12.064;2023-12-14T05:23:22;248.43;;;39.30;;
19101;SDS011;9683;49.028;12.064;2023-12-14T05:25:50;276.47;;;40.73;;
19101;SDS011;9683;49.028;12.064;2023-12-14T05:28:16;248.20;;;39.80;;
19101;SDS011;9683;49.028;12.064;2023-12-14T05:30:43;278.30;;;40.63;;
19101;SDS011;9683;49.028;12.064;2023-12-14T05:33:11;279.35;;;40.13;;
19101;SDS011;9683;49.028;12.064;2023-12-14T05:35:37;202.30;;;37.10;;
19101;SDS011;9683;49.028;12.064;2023-12-14T05:38:04;180.60;;;35.28;;
19101;SDS011;9683;49.028;12.064;2023-12-14T05:40:31;198.07;;;36.92;;
19101;SDS011;9683;49.028;12.064;2023-12-14T05:42:57;183.00;;;33.90;;
19101;SDS011;9683;49.028;12.064;2023-12-14T05:45:24;114.20;;;32.50;;
19101;SDS011;9683;49.028;12.064;2023-12-14T05:47:50;153.20;;;36.50;;
19101;SDS011;9683;49.028;12.064;2023-12-14T05:50:19;113.82;;;31.55;;
19101;SDS011;9683;49.028;12.064;2023-12-14T05:52:47;66.17;;;27.60;;
19101;SDS011;9683;49.028;12.064;2023-12-14T05:55:14;128.77;;;30.77;;
19101;SDS011;9683;49.028;12.064;2023-12-14T05:57:43;208.80;;;38.00;;
19101;SDS011;9683;49.028;12.064;2023-12-14T06:00:10;190.90;;;37.33;;
19101;SDS011;9683;49.028;12.064;2023-12-14T06:02:37;173.65;;;33.97;;
19101;SDS011;9683;49.028;12.064;2023-12-14T06:05:05;195.73;;;35.38;;
19101;SDS011;9683;49.028;12.064;2023-12-14T06:07:34;208.45;;;36.65;;
19101;SDS011;9683;49.028;12.064;2023-12-14T06:10:01;315.13;;;45.83;;
19101;SDS011;9683;49.028;12.064;2023-12-14T06:12:28;267.80;;;41.90;;
19101;SDS011;9683;49.028;12.064;2023-12-14T06:14:55;226.43;;;33.97;;
19101;SDS011;9683;49.028;12.064;2023-12-14T06:17:22;251.05;;;37.88;;
19101;SDS011;9683;49.028;12.064;2023-12-14T06:19:48;193.20;;;35.40;;
19101;SDS011;9683;49.028;12.064;2023-12-14T06:22:15;253.40;;;38.87;;
19101;SDS011;9683;49.028;12.064;2023-12-14T06:24:43;137.82;;;26.00;;
19101;SDS011;9683;49.028;12.064;2023-12-14T06:27:10;218.02;;;36.38;;
19101;SDS011;9683;49.028;12.064;2023-12-14T06:29:37;256.53;;;42.07;;
19101;SDS011;9683;49.028;12.064;2023-12-14T06:32:03;245.65;;;42.42;;
19101;SDS011;9683;49.028;12.064;2023-12-14T06:34:31;234.97;;;40.40;;
19101;SDS011;9683;49.028;12.064;2023-12-14T06:36:57;237.90;;;43.25;;
19101;SDS011;9683;49.028;12.064;2023-12-14T06:39:25;239.63;;;41.27;;
19101;SDS011;9683;49.028;12.064;2023-12-14T06:41:53;262.25;;;36.85;;
19101;SDS011;9683;49.028;12.064;2023-12-14T06:44:20;223.20;;;37.00;;
19101;SDS011;9683;49.028;12.064;2023-12-14T06:46:46;257.10;;;42.53;;
19101;SDS011;9683;49.028;12.064;2023-12-14T06:49:13;221.50;;;40.17;;
19101;SDS011;9683;49.028;12.064;2023-12-14T06:51:39;255.60;;;43.23;;
19101;SDS011;9683;49.028;12.064;2023-12-14T06:54:06;246.70;;;44.43;;
19101;SDS011;9683;49.028;12.064;2023-12-14T06:56:33;254.30;;;41.33;;
19101;SDS011;9683;49.028;12.064;2023-12-14T06:59:03;163.43;;;24.47;;
19101;SDS011;9683;49.028;12.064;2023-12-14T07:01:30;82.47;;;16.10;;
19101;SDS011;9683;49.028;12.064;2023-12-14T07:03:56;112.03;;;19.80;;
19101;SDS011;9683;49.028;12.064;2023-12-14T07:06:23;99.47;;;16.53;;
19101;SDS011;9683;49.028;12.064;2023-12-14T07:08:49;228.10;;;35.40;;
19101;SDS011;9683;49.028;12.064;2023-12-14T07:11:16;224.80;;;35.40;;
19101;SDS011;9683;49.028;12.064;2023-12-14T07:13:43;239.13;;;41.07;;
19101;SDS011;9683;49.028;12.064;2023-12-14T07:16:12;283.00;;;43.77;;
19101;SDS011;9683;49.028;12.064;2023-12-14T07:18:40;242.48;;;39.90;;
19101;SDS011;9683;49.028;12.064;2023-12-14T07:21:07;273.23;;;44.53;;
19101;SDS011;9683;49.028;12.064;2023-12-14T07:23:34;249.10;;;41.45;;
19101;SDS011;9683;49.028;12.064;2023-12-14T07:26:02;265.63;;;42.87;;
19101;SDS011;9683;49.028;12.064;2023-12-14T07:28:29;226.20;;;38.67;;
19101;SDS011;9683;49.028;12.064;2023-12-14T07:30:55;257.03;;;42.77;;
19101;SDS011;9683;49.028;12.064;2023-12-14T07:33:23;245.07;;;41.43;;
19101;SDS011;9683;49.028;12.064;2023-12-14T07:35:50;244.47;;;41.20;;
19101;SDS011;9683;49.028;12.064;2023-12-14T07:38:17;246.07;;;39.83;;
19101;SDS011;9683;49.028;12.064;2023-12-14T07:40:43;261.33;;;41.67;;
19101;SDS011;9683;49.028;12.064;2023-12-14T07:43:12;231.10;;;40.20;;
19101;SDS011;9683;49.028;12.064;2023-12-14T07:45:38;247.97;;;43.50;;
19101;SDS011;9683;49.028;12.064;2023-12-14T07:48:05;250.20;;;43.10;;
19101;SDS011;9683;49.028;12.064;2023-12-14T07:50:33;261.10;;;35.00;;
19101;SDS011;9683;49.028;12.064;2023-12-14T07:53:00;215.57;;;33.90;;
19101;SDS011;9683;49.028;12.064;2023-12-14T07:55:26;239.50;;;36.63;;
19101;SDS011;9683;49.028;12.064;2023-12-14T07:57:54;223.60;;;31.90;;
19101;SDS011;9683;49.028;12.064;2023-12-14T08:00:20;230.07;;;32.83;;
19101;SDS011;9683;49.028;12.064;2023-12-14T08:02:47;241.20;;;33.07;;
19101;SDS011;9683;49.028;12.064;2023-12-14T08:05:13;225.13;;;30.93;;
19101;SDS011;9683;49.028;12.064;2023-12-14T08:07:42;225.40;;;33.93;;
19101;SDS011;9683;49.028;12.064;2023-12-14T08:10:08;237.30;;;33.88;;
19101;SDS011;9683;49.028;12.064;2023-12-14T08:12:35;215.53;;;31.70;;
19101;SDS011;9683;49.028;12.064;2023-12-14T08:15:02;217.88;;;33.65;;
19101;SDS011;9683;49.028;12.064;2023-12-14T08:17:29;249.63;;;34.50;;
19101;SDS011;9683;49.028;12.064;2023-12-14T08:19:55;246.30;;;35.27;;
19101;SDS011;9683;49.028;12.064;2023-12-14T08:22:22;235.93;;;33.70;;
19101;SDS011;9683;49.028;12.064;2023-12-14T08:24:50;235.80;;;31.40;;
19101;SDS011;9683;49.028;12.064;2023-12-14T08:27:17;264.97;;;33.67;;
19101;SDS011;9683;49.028;12.064;2023-12-14T08:29:44;260.00;;;37.13;;
19101;SDS011;9683;49.028;12.064;2023-12-14T08:32:11;247.87;;;34.67;;
19101;SDS011;9683;49.028;12.064;2023-12-14T08:34:38;226.60;;;31.93;;
19101;SDS011;9683;49.028;12.064;2023-12-14T08:37:04;244.77;;;36.20;;
19101;SDS011;9683;49.028;12.064;2023-12-14T08:39:31;224.23;;;38.10;;
19101;SDS011;9683;49.028;12.064;2023-12-14T08:41:58;258.57;;;42.57;;
19101;SDS011;9683;49.028;12.064;2023-12-14T08:44:25;208.87;;;36.13;;
19101;SDS011;9683;49.028;12.064;2023-12-14T08:46:52;240.43;;;38.67;;
19101;SDS011;9683;49.028;12.064;2023-12-14T08:49:18;250.73;;;42.00;;
19101;SDS011;9683;49.028;12.064;2023-12-14T08:51:45;128.00;;;19.03;;
19101;SDS011;9683;49.028;12.064;2023-12-14T08:54:11;105.10;;;17.40;;
19101;SDS011;9683;49.028;12.064;2023-12-14T08:56:38;90.43;;;16.57;;
19101;SDS011;9683;49.028;12.064;2023-12-14T08:59:06;86.30;;;12.93;;
19101;SDS011;9683;49.028;12.064;2023-12-14T09:01:33;248.10;;;39.70;;
19101;SDS011;9683;49.028;12.064;2023-12-14T09:03:59;285.17;;;41.77;;
19101;SDS011;9683;49.028;12.064;2023-12-14T09:06:26;217.67;;;36.80;;
19101;SDS011;9683;49.028;12.064;2023-12-14T09:08:52;208.83;;;37.50;;
19101;SDS011;9683;49.028;12.064;2023-12-14T09:11:19;244.53;;;39.50;;
19101;SDS011;9683;49.028;12.064;2023-12-14T09:13:45;242.53;;;40.17;;
19101;SDS011;9683;49.028;12.064;2023-12-14T09:16:13;230.77;;;38.50;;
19101;SDS011;9683;49.028;12.064;2023-12-14T09:18:40;271.03;;;39.67;;
19101;SDS011;9683;49.028;12.064;2023-12-14T09:21:07;233.27;;;40.17;;
19101;SDS011;9683;49.028;12.064;2023-12-14T09:23:34;235.87;;;41.00;;
19101;SDS011;9683;49.028;12.064;2023-12-14T09:26:00;238.15;;;39.72;;
19101;SDS011;9683;49.028;12.064;2023-12-14T09:28:27;245.10;;;39.87;;
19101;SDS011;9683;49.028;12.064;2023-12-14T09:30:53;258.67;;;40.73;;
19101;SDS011;9683;49.028;12.064;2023-12-14T09:33:21;241.97;;;40.07;;
19101;SDS011;9683;49.028;12.064;2023-12-14T09:35:48;243.70;;;41.00;;
19101;SDS011;9683;49.028;12.064;2023-12-14T09:38:14;242.40;;;41.17;;
19101;SDS011;9683;49.028;12.064;2023-12-14T09:40:42;236.93;;;40.90;;
19101;SDS011;9683;49.028;12.064;2023-12-14T09:43:09;234.63;;;39.27;;
19101;SDS011;9683;49.028;12.064;2023-12-14T09:45:37;277.97;;;43.80;;
19101;SDS011;9683;49.028;12.064;2023-12-14T09:48:07;285.40;;;45.70;;
19101;SDS011;9683;49.028;12.064;2023-12-14T09:50:37;232.73;;;37.97;;
19101;SDS011;9683;49.028;12.064;2023-12-14T09:53:05;221.88;;;38.03;;
19101;SDS011;9683;49.028;12.064;2023-12-14T09:55:32;226.10;;;38.60;;
19101;SDS011;9683;49.028;12.064;2023-12-14T09:57:59;256.40;;;39.60;;
19101;SDS011;9683;49.028;12.064;2023-12-14T10:00:32;249.60;;;41.37;;
19101;SDS011;9683;49.028;12.064;2023-12-14T10:03:11;237.70;;;38.60;;
19101;SDS011;9683;49.028;12.064;2023-12-14T10:05:45;237.27;;;38.60;;
19101;SDS011;9683;49.028;12.064;2023-12-14T10:08:13;241.43;;;36.77;;
19101;SDS011;9683;49.028;12.064;2023-12-14T10:10:40;250.90;;;40.50;;
19101;SDS011;9683;49.028;12.064;2023-12-14T10:13:06;233.60;;;39.53;;
19101;SDS011;9683;49.028;12.064;2023-12-14T10:15:39;227.30;;;39.10;;
19101;SDS011;9683;49.028;12.064;2023-12-14T10:18:06;221.77;;;38.03;;
19101;SDS011;9683;49.028;12.064;2023-12-14T10:20:33;212.70;;;37.20;;
19101;SDS011;9683;49.028;12.064;2023-12-14T10:23:01;260.93;;;40.20;;
19101;SDS011;9683;49.028;12.064;2023-12-14T10:25:27;208.67;;;38.00;;
19101;SDS011;9683;49.028;12.064;2023-12-14T10:27:54;267.37;;;40.23;;
19101;SDS011;9683;49.028;12.064;2023-12-14T10:30:20;215.60;;;35.23;;
19101;SDS011;9683;49.028;12.064;2023-12-14T10:32:47;237.93;;;39.90;;
19101;SDS011;9683;49.028;12.064;2023-12-14T10:35:15;232.03;;;37.53;;
19101;SDS011;9683;49.028;12.064;2023-12-14T10:37:44;233.03;;;37.83;;
19101;SDS011;9683;49.028;12.064;2023-12-14T10:40:16;225.67;;;35.60;;
19101;SDS011;9683;49.028;12.064;2023-12-14T10:42:43;228.13;;;37.87;;
19101;SDS011;9683;49.028;12.064;2023-12-14T10:45:11;250.87;;;38.90;;
19101;SDS011;9683;49.028;12.064;2023-12-14T10:47:43;224.10;;;37.57;;
19101;SDS011;9683;49.028;12.064;2023-12-14T10:50:10;220.23;;;38.13;;
19101;SDS011;9683;49.028;12.064;2023-12-14T10:52:37;253.87;;;38.93;;
19101;SDS011;9683;49.028;12.064;2023-12-14T10:55:06;233.93;;;36.70;;
19101;SDS011;9683;49.028;12.064;2023-12-14T10:57:37;232.50;;;36.70;;
19101;SDS011;9683;49.028;12.064;2023-12-14T11:00:05;259.70;;;38.17;;
19101;SDS011;9683;49.028;12.064;2023-12-14T11:02:37;227.50;;;37.37;;
19101;SDS011;9683;49.028;12.064;2023-12-14T11:05:06;221.20;;;34.77;;
19101;SDS011;9683;49.028;12.064;2023-12-14T11:07:44;216.20;;;35.70;;
19101;SDS011;9683;49.028;12.064;2023-12-14T11:10:11;213.73;;;35.13;;
19101;SDS011;9683;49.028;12.064;2023-12-14T11:12:43;223.17;;;35.67;;
19101;SDS011;9683;49.028;12.064;2023-12-14T11:15:17;219.93;;;36.73;;
19101;SDS011;9683;49.028;12.064;2023-12-14T11:17:49;243.20;;;39.07;;
19101;SDS011;9683;49.028;12.064;2023-12-14T11:20:50;214.93;;;35.80;;
19101;SDS011;9683;49.028;12.064;2023-12-14T11:23:26;241.33;;;38.50;;
19101;SDS011;9683;49.028;12.064;2023-12-14T11:25:57;215.50;;;36.30;;
19101;SDS011;9683;49.028;12.064;2023-12-14T11:28:27;210.23;;;37.53;;
19101;SDS011;9683;49.028;12.064;2023-12-14T11:30:53;227.30;;;37.83;;
19101;SDS011;9683;49.028;12.064;2023-12-14T11:33:20;228.47;;;37.20;;
19101;SDS011;9683;49.028;12.064;2023-12-14T11:35:47;211.30;;;35.33;;
19101;SDS011;9683;49.028;12.064;2023-12-14T11:38:14;255.40;;;42.60;;
19101;SDS011;9683;49.028;12.064;2023-12-14T11:40:41;220.23;;;35.10;;
19101;SDS011;9683;49.028;12.064;2023-12-14T11:43:08;234.60;;;35.93;;
19101;SDS011;9683;49.028;12.064;2023-12-14T11:45:37;224.37;;;35.77;;
19101;SDS011;9683;49.028;12.064;2023-12-14T11:48:04;200.67;;;12.63;;
19101;SDS011;9683;49.028;12.064;2023-12-14T11:50:32;182.43;;;11.53;;
19101;SDS011;9683;49.028;12.064;2023-12-14T11:53:00;228.20;;;14.33;;
19101;SDS011;9683;49.028;12.064;2023-12-14T11:55:28;200.30;;;12.80;;
19101;SDS011;9683;49.028;12.064;2023-12-14T11:57:55;210.73;;;13.97;;
19101;SDS011;9683;49.028;12.064;2023-12-14T12:00:25;211.70;;;15.70;;
19101;SDS011;9683;49.028;12.064;2023-12-14T12:03:07;193.97;;;12.43;;
19101;SDS011;9683;49.028;12.064;2023-12-14T12:05:35;187.40;;;11.93;;
19101;SDS011;9683;49.028;12.064;2023-12-14T12:08:02;206.20;;;13.20;;
19101;SDS011;9683;49.028;12.064;2023-12-14T12:10:29;228.57;;;15.80;;
19101;SDS011;9683;49.028;12.064;2023-12-14T12:12:58;198.40;;;12.73;;
19101;SDS011;9683;49.028;12.064;2023-12-14T12:15:25;171.73;;;11.20;;
19101;SDS011;9683;49.028;12.064;2023-12-14T12:17:52;200.63;;;14.53;;
19101;SDS011;9683;49.028;12.064;2023-12-14T12:20:19;208.00;;;13.87;;
19101;SDS011;9683;49.028;12.064;2023-12-14T12:22:46;236.80;;;14.87;;
19101;SDS011;9683;49.028;12.064;2023-12-14T12:25:13;230.17;;;13.53;;
19101;SDS011;9683;49.028;12.064;2023-12-14T12:27:40;205.53;;;12.70;;
19101;SDS011;9683;49.028;12.064;2023-12-14T12:30:07;376.57;;;22.50;;
19101;SDS011;9683;49.028;12.064;2023-12-14T12:32:34;376.77;;;22.83;;
19101;SDS011;9683;49.028;12.064;2023-12-14T12:35:00;415.27;;;24.97;;
19101;SDS011;9683;49.028;12.064;2023-12-14T12:37:28;413.93;;;25.57;;
19101;SDS011;9683;49.028;12.064;2023-12-14T12:39:55;392.03;;;23.10;;
19101;SDS011;9683;49.028;12.064;2023-12-14T12:42:21;237.60;;;14.80;;
19101;SDS011;9683;49.028;12.064;2023-12-14T12:44:48;225.67;;;14.23;;
19101;SDS011;9683;49.028;12.064;2023-12-14T12:47:14;207.03;;;13.30;;
19101;SDS011;9683;49.028;12.064;2023-12-14T12:49:41;222.53;;;13.77;;
19101;SDS011;9683;49.028;12.064;2023-12-14T12:52:07;394.73;;;23.70;;
19101;SDS011;9683;49.028;12.064;2023-12-14T12:54:35;379.93;;;23.40;;
19101;SDS011;9683;49.028;12.064;2023-12-14T12:57:02;373.00;;;22.50;;
19101;SDS011;9683;49.028;12.064;2023-12-14T12:59:29;389.27;;;22.87;;
19101;SDS011;9683;49.028;12.064;2023-12-14T13:01:56;378.57;;;23.40;;
19101;SDS011;9683;49.028;12.064;2023-12-14T13:04:23;282.87;;;16.77;;
19101;SDS011;9683;49.028;12.064;2023-12-14T13:06:51;353.60;;;21.63;;
19101;SDS011;9683;49.028;12.064;2023-12-14T13:09:18;369.57;;;22.67;;
19101;SDS011;9683;49.028;12.064;2023-12-14T13:11:47;343.53;;;20.97;;
19101;SDS011;9683;49.028;12.064;2023-12-14T13:14:13;357.77;;;22.30;;
19101;SDS011;9683;49.028;12.064;2023-12-14T13:16:40;394.37;;;23.97;;
19101;SDS011;9683;49.028;12.064;2023-12-14T13:19:08;352.90;;;20.93;;
19101;SDS011;9683;49.028;12.064;2023-12-14T13:21:34;383.53;;;22.93;;
19101;SDS011;9683;49.028;12.064;2023-12-14T13:24:01;203.27;;;12.60;;
19101;SDS011;9683;49.028;12.064;2023-12-14T13:26:29;329.47;;;20.33;;
19101;SDS011;9683;49.028;12.064;2023-12-14T13:28:57;324.80;;;20.27;;
19101;SDS011;9683;49.028;12.064;2023-12-14T13:31:23;335.93;;;20.30;;
19101;SDS011;9683;49.028;12.064;2023-12-14T13:33:50;339.23;;;21.07;;
19101;SDS011;9683;49.028;12.064;2023-12-14T13:36:17;398.43;;;24.50;;
19101;SDS011;9683;49.028;12.064;2023-12-14T13:38:44;362.73;;;22.13;;
19101;SDS011;9683;49.028;12.064;2023-12-14T13:41:12;364.17;;;22.27;;
19101;SDS011;9683;49.028;12.064;2023-12-14T13:43:38;354.83;;;22.73;;
19101;SDS011;9683;49.028;12.064;2023-12-14T13:46:06;359.20;;;22.03;;
19101;SDS011;9683;49.028;12.064;2023-12-14T13:48:33;355.40;;;21.57;;
19101;SDS011;9683;49.028;12.064;2023-12-14T13:50:59;354.00;;;20.80;;
19101;SDS011;9683;49.028;12.064;2023-12-14T13:53:26;371.90;;;21.80;;
19101;SDS011;9683;49.028;12.064;2023-12-14T13:55:53;243.87;;;15.13;;
19101;SDS011;9683;49.028;12.064;2023-12-14T13:58:19;261.63;;;16.00;;
19101;SDS011;9683;49.028;12.064;2023-12-14T14:00:46;413.83;;;26.40;;
19101;SDS011;9683;49.028;12.064;2023-12-14T14:03:14;356.37;;;23.27;;
19101;SDS011;9683;49.028;12.064;2023-12-14T14:05:41;394.47;;;24.20;;
19101;SDS011;9683;49.028;12.064;2023-12-14T14:08:09;312.50;;;19.10;;
19101;SDS011;9683;49.028;12.064;2023-12-14T14:10:36;364.70;;;22.47;;
19101;SDS011;9683;49.028;12.064;2023-12-14T14:13:02;372.83;;;22.60;;